Time;durP1;ratioP1;P1;durP2;ratioP2;P2;SDS_P1;SDS_P2;PMS_P1;PMS_P2;Temp;Humidity;BMP_temperature;BMP_pressure;BME280_temperature;BME280_humidity;BME280_pressure;Samples;Min_cycle;Max_cycle;Signal;HPM_P1;HPM_P2
2021/12/18 00:00:32;;;;;;;7.18;4.85;;;;;;;11.52;69.21;101220.84;5003022;28;104205;-48
2021/12/18 00:02:58;;;;;;;8.00;5.07;;;;;;;11.52;69.14;101221.66;5011216;28;103338;-48
2021/12/18 00:05:26;;;;;;;11.15;5.20;;;;;;;11.51;69.21;101225.47;5007403;28;102006;-48
2021/12/18 00:07:53;;;;;;;10.67;5.17;;;;;;;11.51;69.39;101236.38;5011245;28;102225;-49
2021/12/18 00:10:22;;;;;;;8.20;4.95;;;;;;;11.51;69.61;101235.56;5010524;28;103786;-48
2021/12/18 00:12:51;;;;;;;7.63;4.82;;;;;;;11.51;69.28;101236.38;5009898;28;102315;-49
2021/12/18 00:15:18;;;;;;;8.60;5.00;;;;;;;11.51;69.18;101236.38;5012638;28;102530;-48
2021/12/18 00:17:47;;;;;;;6.47;4.23;;;;;;;11.51;69.26;101233.66;5000400;28;102752;-48
2021/12/18 00:20:15;;;;;;;8.27;5.40;;;;;;;11.52;68.98;101237.19;5006734;28;103624;-48
2021/12/18 00:22:44;;;;;;;8.60;5.43;;;;;;;11.51;68.94;101235.56;5014899;28;102143;-48
2021/12/18 00:25:12;;;;;;;7.75;4.80;;;;;;;11.52;69.06;101239.91;5008301;28;102187;-48
2021/12/18 00:27:39;;;;;;;7.97;5.00;;;;;;;11.51;69.14;101235.56;5009027;28;103550;-49
2021/12/18 00:30:07;;;;;;;7.43;4.63;;;;;;;11.52;69.01;101237.19;4997378;28;103822;-48
2021/12/18 00:32:34;;;;;;;8.30;4.75;;;;;;;11.52;68.90;101237.19;5007159;28;102106;-49
2021/12/18 00:35:00;;;;;;;8.55;5.15;;;;;;;11.52;69.41;101245.38;5011148;28;102296;-49
2021/12/18 00:37:26;;;;;;;7.15;4.65;;;;;;;11.51;69.43;101241.81;5005450;28;102426;-49
2021/12/18 00:39:57;;;;;;;8.23;5.43;;;;;;;11.52;69.35;101237.19;5011129;28;103919;-51
2021/12/18 00:45:05;;;;;;;10.98;5.88;;;;;;;11.51;69.28;101236.38;5013370;28;102507;-48
2021/12/18 00:47:32;;;;;;;9.35;5.68;;;;;;;11.51;69.14;101235.56;5010506;28;102742;-48
2021/12/18 00:49:58;;;;;;;8.25;5.47;;;;;;;11.51;69.37;101227.38;5006723;28;104009;-49
2021/12/18 00:52:25;;;;;;;10.38;6.15;;;;;;;11.52;68.92;101226.28;5010533;28;102169;-48
2021/12/18 00:54:52;;;;;;;10.00;5.57;;;;;;;11.52;68.90;101231.75;5009588;28;102176;-49
2021/12/18 00:57:20;;;;;;;9.48;5.72;;;;;;;11.51;69.20;101230.09;5006019;28;102318;-48
2021/12/18 00:59:48;;;;;;;10.68;5.88;;;;;;;11.51;69.16;101228.19;5009159;28;103854;-49
2021/12/18 01:02:15;;;;;;;10.60;6.68;;;;;;;11.50;68.89;101223.84;5011484;28;102732;-49
2021/12/18 01:04:42;;;;;;;9.60;5.60;;;;;;;11.51;68.88;101224.66;5025344;28;102262;-47
2021/12/18 01:07:09;;;;;;;8.40;5.47;;;;;;;11.51;69.13;101224.66;5013509;28;102178;-48
2021/12/18 01:12:11;;;;;;;8.15;4.80;;;;;;;11.51;68.80;101227.38;5006234;28;102241;-48
2021/12/18 01:25:11;;;;;;;;;;;;;;;11.50;69.24;101231.16;5013160;28;103775;-49
2021/12/18 01:27:38;;;;;;;9.90;5.32;;;;;;;11.49;69.16;101221.34;5009324;28;102304;-49
2021/12/18 01:30:10;;;;;;;8.90;5.35;;;;;;;11.49;69.11;101224.91;5011189;28;104598;-48
2021/12/18 01:32:37;;;;;;;9.45;4.95;;;;;;;11.50;69.02;101228.44;5011067;28;102514;-48
2021/12/18 01:35:05;;;;;;;7.05;4.45;;;;;;;11.50;68.70;101225.72;5009312;28;103473;-48
2021/12/18 01:37:31;;;;;;;6.60;4.57;;;;;;;11.50;68.84;101233.91;5008984;28;102323;-48
2021/12/18 01:39:58;;;;;;;7.28;4.65;;;;;;;11.49;68.83;101229.53;5010548;28;104102;-48
2021/12/18 01:52:56;;;;;;;6.97;4.57;;;;;;;11.49;69.30;101238.53;5015536;28;102425;-48
2021/12/18 01:55:27;;;;;;;6.60;4.63;;;;;;;11.49;69.11;101241.25;5004805;28;102042;-48
2021/12/18 01:57:54;;;;;;;6.97;4.45;;;;;;;11.48;68.93;101236.09;5031220;28;102260;-49
2021/12/18 02:00:24;;;;;;;6.25;4.82;;;;;;;11.48;69.10;101230.63;5010955;28;103909;-48
2021/12/18 02:02:52;;;;;;;7.97;4.43;;;;;;;11.49;68.85;101237.72;5027749;28;102195;-49
2021/12/18 02:05:19;;;;;;;8.73;4.50;;;;;;;11.48;69.06;101247.81;4999051;28;102905;-48
2021/12/18 02:07:46;;;;;;;5.93;4.20;;;;;;;11.47;69.08;101243.44;5017864;28;102415;-48
2021/12/18 02:10:25;;;;;;;6.63;4.32;;;;;;;11.47;68.99;101251.63;5011711;28;103933;-49
2021/12/18 02:13:20;;;;;;;9.10;5.18;;;;;;;11.47;68.89;101253.53;5006566;28;102179;-48
2021/12/18 02:21:23;;;;;;;5.95;4.25;;;;;;;11.48;69.00;101252.44;5008393;28;103955;-48
2021/12/18 02:23:50;;;;;;;6.35;4.10;;;;;;;11.47;69.10;101261.72;4987958;28;102582;-49
2021/12/18 02:26:17;;;;;;;6.18;3.90;;;;;;;11.48;68.70;101266.06;5006279;28;102171;-48
2021/12/18 02:28:47;;;;;;;6.53;3.75;;;;;;;11.48;68.88;101263.34;5000691;28;102438;-49
2021/12/18 02:31:15;;;;;;;6.93;3.60;;;;;;;11.47;68.84;101261.72;5001006;28;103893;-48
2021/12/18 02:33:43;;;;;;;5.27;3.77;;;;;;;11.47;69.13;101261.72;5012693;28;102249;-48
2021/12/18 02:36:19;;;;;;;5.40;3.80;;;;;;;11.47;69.02;101275.34;5013843;28;102724;-48
2021/12/18 02:43:53;;;;;;;5.60;3.80;;;;;;;11.47;68.84;101278.06;5009665;28;102662;-48
2021/12/18 02:46:20;;;;;;;9.65;4.18;;;;;;;11.46;69.01;101273.66;5001139;28;102765;-49
2021/12/18 02:48:49;;;;;;;7.05;3.40;;;;;;;11.46;68.95;101279.13;5004622;28;102634;-48
2021/12/18 02:51:17;;;;;;;5.53;3.83;;;;;;;11.46;68.64;101281.84;4999226;28;104204;-48
2021/12/18 02:53:47;;;;;;;4.97;3.90;;;;;;;11.45;69.08;101281.03;5004121;28;102161;-48
2021/12/18 02:56:15;;;;;;;4.47;3.40;;;;;;;11.46;68.79;101282.66;5007940;28;102629;-48
2021/12/18 02:58:51;;;;;;;4.47;3.42;;;;;;;11.46;68.86;101284.56;5013135;28;102209;-48
2021/12/18 03:01:18;;;;;;;;;;;;;;;11.46;69.06;101293.56;5013238;28;103992;-48
2021/12/18 03:03:46;;;;;;;5.38;4.13;;;;;;;11.45;68.95;101297.38;5000221;28;102719;-49
2021/12/18 03:23:27;;;;;;;4.70;3.63;;;;;;;11.46;68.82;101320.81;4914773;28;103878;-50
2021/12/18 03:25:58;;;;;;;4.90;3.42;;;;;;;11.46;68.85;101320.00;4908112;28;102245;-47
2021/12/18 03:28:26;;;;;;;6.57;3.40;;;;;;;11.46;68.98;101320.81;4983253;28;102966;-49
2021/12/18 03:30:52;;;;;;;5.32;3.85;;;;;;;11.45;68.76;101323.81;5012167;28;102180;-49
2021/12/18 03:33:19;;;;;;;6.10;3.60;;;;;;;11.46;68.79;101336.34;5010145;28;103877;-48
2021/12/18 03:35:46;;;;;;;5.10;3.90;;;;;;;11.45;69.24;101338.25;5009773;28;106514;-48
2021/12/18 03:38:13;;;;;;;5.43;3.47;;;;;;;11.46;68.93;101342.63;5012751;28;103118;-48
2021/12/18 03:40:40;;;;;;;5.32;3.83;;;;;;;11.45;69.08;101338.25;5014599;28;102295;-49
2021/12/18 03:43:08;;;;;;;5.78;3.58;;;;;;;11.46;69.14;101344.53;5012041;28;103949;-48
2021/12/18 03:45:35;;;;;;;7.78;3.90;;;;;;;11.46;68.71;101349.97;5009940;28;102670;-48
2021/12/18 03:48:02;;;;;;;4.55;3.35;;;;;;;11.46;69.18;101350.81;5013677;28;102411;-48
2021/12/18 03:50:28;;;;;;;5.20;3.60;;;;;;;11.45;69.22;101351.06;5013767;28;102222;-48
2021/12/18 03:52:55;;;;;;;4.15;3.13;;;;;;;11.45;69.27;101362.78;5011900;28;103691;-48
2021/12/18 03:55:22;;;;;;;5.57;3.10;;;;;;;11.45;68.91;101357.34;5007614;28;103708;-49
2021/12/18 03:57:48;;;;;;;6.10;3.53;;;;;;;11.46;69.12;101358.16;5009386;28;102718;-49
2021/12/18 04:00:17;;;;;;;5.93;3.30;;;;;;;11.45;69.15;101361.97;5013841;28;102354;-48
2021/12/18 04:02:45;;;;;;;4.60;3.20;;;;;;;11.45;68.99;101361.97;5010309;28;103972;-49
2021/12/18 04:05:12;;;;;;;5.18;3.35;;;;;;;11.45;68.75;101361.97;5009475;28;102707;-49
2021/12/18 04:07:43;;;;;;;5.22;3.42;;;;;;;11.44;69.18;101361.16;5008463;28;102495;-48
2021/12/18 04:10:10;;;;;;;;;;;;;;;11.46;69.14;101363.63;4995483;28;102773;-48
2021/12/18 04:12:36;;;;;;;4.18;3.17;;;;;;;11.45;69.17;101367.44;5012925;28;103719;-49
2021/12/18 04:15:03;;;;;;;4.97;3.17;;;;;;;11.45;69.17;101367.44;5013014;28;102499;-48
2021/12/18 04:17:31;;;;;;;4.57;3.45;;;;;;;11.45;69.04;101372.88;5010038;28;102426;-49
2021/12/18 04:19:58;;;;;;;6.00;3.80;;;;;;;11.45;68.89;101378.34;5014085;28;102235;-48
2021/12/18 04:22:24;;;;;;;5.03;3.60;;;;;;;11.45;69.25;101378.34;4999831;28;103899;-49
2021/12/18 04:24:51;;;;;;;5.50;3.55;;;;;;;11.45;68.71;101383.78;5003860;28;102400;-48
2021/12/18 04:27:17;;;;;;;4.72;3.38;;;;;;;11.45;69.02;101389.22;5006885;28;102749;-48
2021/12/18 04:29:44;;;;;;;5.05;3.63;;;;;;;11.45;69.04;101394.69;5009418;28;102132;-48
2021/12/18 04:32:12;;;;;;;5.20;3.50;;;;;;;11.45;69.14;101397.41;5002245;28;103704;-48
2021/12/18 04:34:40;;;;;;;5.18;3.50;;;;;;;11.44;69.26;101393.88;5013373;28;102368;-48
2021/12/18 04:37:07;;;;;;;5.40;3.70;;;;;;;11.44;69.25;101395.78;5005776;28;103020;-49
2021/12/18 04:39:34;;;;;;;4.03;3.20;;;;;;;11.43;68.53;101397.69;5011940;28;102136;-48
2021/12/18 04:42:01;;;;;;;5.07;3.50;;;;;;;11.43;69.06;101402.28;4982310;28;102373;-48
2021/12/18 04:44:27;;;;;;;4.75;3.42;;;;;;;11.45;68.72;101411.03;5007309;28;102160;-49
2021/12/18 04:46:54;;;;;;;5.90;3.40;;;;;;;11.44;68.93;101420.31;5009118;28;102643;-49
2021/12/18 04:49:20;;;;;;;3.67;3.15;;;;;;;11.43;68.92;101418.63;5007144;28;102240;-49
2021/12/18 04:51:48;;;;;;;4.45;3.30;;;;;;;11.44;68.93;101425.75;5009981;28;103934;-49
2021/12/18 04:54:15;;;;;;;4.60;3.15;;;;;;;11.42;68.81;101428.72;5011952;28;102083;-49
2021/12/18 04:56:42;;;;;;;3.85;2.95;;;;;;;11.43;69.24;101435.00;5008834;28;102737;-48
2021/12/18 04:59:08;;;;;;;3.92;3.20;;;;;;;11.42;68.74;101439.63;5007637;28;102717;-48
2021/12/18 05:01:37;;;;;;;4.22;3.33;;;;;;;11.42;68.90;101433.34;5007310;28;103422;-48
2021/12/18 05:04:05;;;;;;;4.95;3.20;;;;;;;11.42;68.90;101438.81;5012191;28;102269;-49
2021/12/18 05:06:35;;;;;;;4.90;3.38;;;;;;;11.43;69.03;101445.91;5007111;28;102529;-48
2021/12/18 05:09:04;;;;;;;4.35;2.78;;;;;;;11.42;68.92;101444.25;5003310;28;102228;-48
2021/12/18 05:11:31;;;;;;;3.67;2.33;;;;;;;11.42;69.18;101446.97;5011072;28;104029;-49
2021/12/18 05:13:58;;;;;;;4.50;3.13;;;;;;;11.42;68.69;101449.72;5011414;28;103497;-49
2021/12/18 05:16:24;;;;;;;4.82;3.38;;;;;;;11.41;68.96;101450.81;5009475;28;102374;-48
2021/12/18 05:18:51;;;;;;;4.72;3.20;;;;;;;11.40;68.84;101451.88;5009908;28;102098;-48
2021/12/18 05:21:17;;;;;;;4.00;2.85;;;;;;;11.41;69.00;101461.69;5006377;28;102804;-49
2021/12/18 05:23:44;;;;;;;4.32;3.20;;;;;;;11.41;68.91;101464.44;5015127;28;102274;-48
2021/12/18 05:26:12;;;;;;;4.30;3.10;;;;;;;11.40;68.87;101463.59;5016226;28;102473;-48
2021/12/18 05:28:39;;;;;;;3.88;3.00;;;;;;;11.41;69.04;101465.25;5014583;28;102249;-49
2021/12/18 05:31:07;;;;;;;3.45;2.75;;;;;;;11.40;68.62;101474.50;5007557;28;104138;-48
2021/12/18 05:33:33;;;;;;;4.28;2.90;;;;;;;11.40;68.84;101468.25;5015923;28;102513;-49
2021/12/18 05:35:59;;;;;;;5.53;3.38;;;;;;;11.40;68.93;101481.88;5009955;28;102645;-48
2021/12/18 05:38:26;;;;;;;2.95;2.60;;;;;;;11.40;68.73;101479.16;5014739;28;102127;-48
2021/12/18 05:40:52;;;;;;;4.78;2.95;;;;;;;11.40;68.80;101485.41;5006411;28;103887;-49
2021/12/18 05:43:21;;;;;;;4.32;3.22;;;;;;;11.40;68.86;101479.16;5013763;28;103452;-49
2021/12/18 05:45:47;;;;;;;3.33;3.00;;;;;;;11.39;69.10;101482.94;5011937;28;102255;-48
2021/12/18 05:48:14;;;;;;;3.60;3.10;;;;;;;11.40;68.79;101490.03;5005454;28;102225;-48
2021/12/18 05:50:45;;;;;;;4.35;2.90;;;;;;;11.39;68.97;101499.28;5005411;28;104122;-48
2021/12/18 05:53:11;;;;;;;4.45;2.70;;;;;;;11.40;68.86;101503.66;5009847;28;102374;-49
2021/12/18 05:55:38;;;;;;;3.65;2.80;;;;;;;11.40;68.80;101506.41;5001492;28;102597;-48
2021/12/18 05:58:05;;;;;;;3.72;3.10;;;;;;;11.40;68.72;101506.41;5014757;28;102128;-49
2021/12/18 06:00:32;;;;;;;4.00;3.13;;;;;;;11.40;68.97;101520.03;5010787;28;103980;-48
2021/12/18 06:02:59;;;;;;;4.07;3.13;;;;;;;11.40;68.96;101520.03;5007631;28;102183;-48
2021/12/18 06:05:25;;;;;;;3.42;3.05;;;;;;;11.40;68.77;101522.75;5004482;28;102147;-48
2021/12/18 06:07:58;;;;;;;4.28;3.08;;;;;;;11.39;68.59;101526.53;5011738;28;104507;-48
2021/12/18 06:10:28;;;;;;;4.78;3.10;;;;;;;11.39;68.83;101529.25;5013776;28;103935;-48
2021/12/18 06:12:57;;;;;;;5.28;3.05;;;;;;;11.40;68.97;101536.38;5018220;28;102390;-49
2021/12/18 06:15:23;;;;;;;3.90;3.22;;;;;;;11.40;68.77;101533.66;5023229;28;102094;-48
2021/12/18 06:17:53;;;;;;;3.33;3.03;;;;;;;11.40;69.02;101533.66;5016946;28;102206;-48
2021/12/18 06:20:19;;;;;;;3.85;2.80;;;;;;;11.40;68.83;101530.94;5012667;28;103745;-49
2021/12/18 06:22:45;;;;;;;3.15;2.85;;;;;;;11.40;68.73;101539.09;5014125;28;102234;-48
2021/12/18 06:25:12;;;;;;;3.78;2.90;;;;;;;11.40;69.05;101544.56;5010305;28;103327;-47
2021/12/18 06:27:38;;;;;;;3.78;3.33;;;;;;;11.39;68.81;101546.44;5003423;28;102347;-48
2021/12/18 06:30:06;;;;;;;3.85;3.25;;;;;;;11.40;69.08;101544.56;5011818;28;103890;-48
2021/12/18 06:32:33;;;;;;;4.32;3.10;;;;;;;11.39;68.70;101546.44;5015167;28;101999;-48
2021/12/18 06:35:02;;;;;;;3.95;2.88;;;;;;;11.38;69.10;101547.53;5007689;28;102578;-48
2021/12/18 06:37:29;;;;;;;3.80;3.03;;;;;;;11.38;68.73;101541.25;5014673;28;102371;-48
2021/12/18 06:39:55;;;;;;;4.03;3.10;;;;;;;11.39;68.94;101553.78;5012302;28;103976;-48
2021/12/18 06:42:22;;;;;;;4.68;3.10;;;;;;;11.39;69.20;101553.78;5000096;28;103506;-49
2021/12/18 06:44:48;;;;;;;3.63;2.75;;;;;;;11.38;68.79;101558.41;5004746;28;103748;-48
2021/12/18 06:47:14;;;;;;;4.70;3.10;;;;;;;11.39;68.52;101564.69;5006753;28;102602;-48
2021/12/18 06:49:41;;;;;;;4.25;3.08;;;;;;;11.38;69.00;101560.31;5013506;28;104003;-48
2021/12/18 06:52:09;;;;;;;2.97;2.67;;;;;;;11.39;69.03;101570.13;5013358;28;102330;-49
2021/12/18 06:54:35;;;;;;;4.47;2.83;;;;;;;11.39;68.64;101572.88;5016090;28;102371;-48
2021/12/18 06:57:02;;;;;;;3.63;2.70;;;;;;;11.39;68.45;101576.41;5012394;28;102193;-48
2021/12/18 06:59:29;;;;;;;3.63;2.70;;;;;;;11.39;68.87;101581.84;5011548;28;104151;-48
2021/12/18 07:01:55;;;;;;;3.30;2.70;;;;;;;11.39;68.87;101581.84;5003803;28;102643;-49
2021/12/18 07:04:25;;;;;;;3.40;2.67;;;;;;;11.39;68.74;101581.03;5009454;28;102299;-49
2021/12/18 07:06:52;;;;;;;3.65;2.78;;;;;;;11.39;68.86;101581.03;5016034;28;102033;-48
2021/12/18 07:09:21;;;;;;;3.85;3.10;;;;;;;11.38;68.66;101591.13;5004530;28;104092;-48
2021/12/18 07:11:47;;;;;;;2.70;2.50;;;;;;;11.39;68.71;101586.50;5006947;28;102647;-51
2021/12/18 07:14:15;;;;;;;4.13;2.95;;;;;;;11.40;68.93;101590.88;5006939;28;103118;-48
2021/12/18 07:16:41;;;;;;;3.25;2.67;;;;;;;11.40;68.83;101588.16;5013876;28;102328;-48
2021/12/18 07:19:07;;;;;;;4.53;2.70;;;;;;;11.40;68.72;101590.88;5009677;28;103929;-49
2021/12/18 07:21:34;;;;;;;4.00;2.63;;;;;;;11.40;68.89;101593.63;5006389;28;102191;-49
2021/12/18 07:24:00;;;;;;;3.50;2.70;;;;;;;11.41;69.04;101595.25;5008710;28;102150;-48
2021/12/18 07:26:30;;;;;;;3.22;2.83;;;;;;;11.40;68.91;101588.97;5006163;28;102649;-48
2021/12/18 07:29:00;;;;;;;2.63;2.42;;;;;;;11.41;68.86;101600.69;5013181;28;103948;-49
2021/12/18 07:31:27;;;;;;;3.08;2.40;;;;;;;11.41;68.71;101600.69;4998734;28;102281;-48
2021/12/18 07:33:54;;;;;;;2.97;2.53;;;;;;;11.41;69.02;101595.25;4999233;28;103113;-48
2021/12/18 07:36:20;;;;;;;3.53;2.53;;;;;;;11.42;68.61;101607.78;5012628;28;102422;-49
2021/12/18 07:38:47;;;;;;;2.65;2.45;;;;;;;11.41;68.61;101601.53;5011167;28;104056;-48
2021/12/18 07:41:14;;;;;;;2.55;2.35;;;;;;;11.41;68.82;101597.97;5012231;28;102206;-48
2021/12/18 07:43:42;;;;;;;3.50;2.42;;;;;;;11.42;68.81;101599.63;5011040;28;102533;-48
2021/12/18 07:46:08;;;;;;;4.82;2.50;;;;;;;11.42;68.46;101602.34;5001785;28;102347;-48
2021/12/18 07:48:35;;;;;;;3.00;2.58;;;;;;;11.42;68.96;101603.16;5005906;28;104152;-48
2021/12/18 07:51:02;;;;;;;3.50;2.45;;;;;;;11.43;68.56;101606.69;5010784;28;102332;-48
2021/12/18 07:53:28;;;;;;;5.65;2.90;;;;;;;11.42;68.93;101607.78;5014080;28;103647;-48
2021/12/18 07:55:55;;;;;;;2.67;2.47;;;;;;;11.41;68.86;101611.59;5008394;28;103373;-49
2021/12/18 07:58:21;;;;;;;2.97;2.67;;;;;;;11.42;68.78;101614.06;5009992;28;104017;-49
2021/12/18 08:00:49;;;;;;;2.72;2.47;;;;;;;11.43;68.82;101614.88;5010492;28;102640;-49
2021/12/18 08:03:15;;;;;;;4.10;2.67;;;;;;;11.44;68.93;101617.38;4997903;28;102552;-48
2021/12/18 08:05:42;;;;;;;3.50;2.50;;;;;;;11.43;68.85;101625.78;5010891;28;102194;-48
2021/12/18 08:08:08;;;;;;;3.28;2.60;;;;;;;11.43;69.00;101620.34;5006589;28;103685;-48
2021/12/18 08:10:34;;;;;;;3.25;2.63;;;;;;;11.43;68.68;101625.78;5001195;28;102094;-48
2021/12/18 08:13:01;;;;;;;3.28;2.70;;;;;;;11.43;69.05;101625.78;5001527;28;102115;-48
2021/12/18 08:15:27;;;;;;;3.33;2.33;;;;;;;11.45;68.38;101629.09;4998160;28;102644;-48
2021/12/18 08:17:57;;;;;;;3.42;2.50;;;;;;;11.44;69.06;101632.91;5000158;28;104059;-53
2021/12/18 08:20:25;;;;;;;2.85;2.60;;;;;;;11.43;68.69;101633.97;5004249;28;102184;-48
2021/12/18 08:22:52;;;;;;;2.65;2.40;;;;;;;11.43;68.67;101631.22;5007147;28;102153;-48
2021/12/18 08:25:18;;;;;;;2.70;2.30;;;;;;;11.43;68.64;101639.41;5009385;28;102624;-50
2021/12/18 08:27:46;;;;;;;2.78;2.25;;;;;;;11.44;68.94;101632.91;5006503;28;103088;-49
2021/12/18 08:30:14;;;;;;;2.60;2.40;;;;;;;11.43;69.02;101633.97;5017179;28;103996;-49
2021/12/18 08:32:43;;;;;;;3.42;2.63;;;;;;;11.43;69.02;101631.22;5009373;28;102871;-48
2021/12/18 08:35:11;;;;;;;2.70;2.38;;;;;;;11.43;68.94;101631.22;5007238;28;103015;-48
2021/12/18 08:37:37;;;;;;;2.77;2.37;;;;;;;11.45;68.77;101629.09;5012210;28;104229;-48
2021/12/18 08:40:05;;;;;;;2.63;2.42;;;;;;;11.45;69.00;101631.81;5006004;28;102492;-49
2021/12/18 08:42:32;;;;;;;2.38;2.05;;;;;;;11.44;68.74;101628.28;5004923;28;102267;-48
2021/12/18 08:44:59;;;;;;;3.53;2.58;;;;;;;11.45;68.78;101629.91;5002347;28;102777;-48
2021/12/18 08:47:26;;;;;;;2.53;2.33;;;;;;;11.45;68.77;101629.91;5011408;28;104110;-48
2021/12/18 08:49:53;;;;;;;2.47;2.28;;;;;;;11.46;68.84;101619.81;5017476;28;104583;-48
2021/12/18 08:52:21;;;;;;;2.78;2.38;;;;;;;11.46;68.95;101625.28;5010979;28;102299;-48
2021/12/18 08:54:48;;;;;;;2.40;2.20;;;;;;;11.46;68.70;101633.44;5013082;28;107663;-48
2021/12/18 08:57:15;;;;;;;2.45;2.20;;;;;;;11.47;69.07;101637.84;5017177;28;103814;-49
2021/12/18 08:59:41;;;;;;;2.22;2.00;;;;;;;11.46;68.83;101630.72;5013015;28;102738;-48
2021/12/18 09:02:09;;;;;;;3.22;2.33;;;;;;;11.46;68.81;101630.72;5013158;28;102253;-48
2021/12/18 09:04:38;;;;;;;3.45;2.70;;;;;;;11.46;68.59;101630.72;5017300;28;102258;-48
2021/12/18 09:07:05;;;;;;;2.55;2.08;;;;;;;11.45;68.61;101626.38;5015981;28;104198;-48
2021/12/18 09:09:34;;;;;;;3.35;2.10;;;;;;;11.46;68.68;101619.81;5014541;28;102673;-48
2021/12/18 09:12:00;;;;;;;2.72;2.17;;;;;;;11.46;68.67;101630.72;5013266;28;102757;-49
2021/12/18 09:14:27;;;;;;;3.47;2.60;;;;;;;11.45;68.99;101623.63;5015809;28;102170;-49
2021/12/18 09:16:53;;;;;;;2.90;1.90;;;;;;;11.44;69.01;101628.28;5015392;28;103276;-48
2021/12/18 09:19:20;;;;;;;2.40;2.15;;;;;;;11.43;68.79;101620.34;5016823;28;102095;-48
2021/12/18 09:21:46;;;;;;;2.45;2.25;;;;;;;11.45;68.70;101623.63;4999376;28;101943;-48
2021/12/18 09:24:13;;;;;;;2.10;1.88;;;;;;;11.44;68.72;101616.56;5017829;28;102245;-48
2021/12/18 09:26:40;;;;;;;2.53;2.33;;;;;;;11.44;68.85;101622.00;5009537;28;103927;-48
2021/12/18 09:29:07;;;;;;;4.53;2.50;;;;;;;11.43;68.82;101621.19;5015954;28;103064;-49
2021/12/18 09:31:34;;;;;;;2.53;2.33;;;;;;;11.44;68.47;101627.44;5013024;28;103079;-48
2021/12/18 09:34:01;;;;;;;2.50;2.17;;;;;;;11.43;68.51;101620.34;5008679;28;102473;-48
2021/12/18 09:36:28;;;;;;;2.78;2.00;;;;;;;11.44;68.45;101622.00;5004371;28;103810;-48
2021/12/18 09:38:54;;;;;;;2.80;2.10;;;;;;;11.43;68.43;101620.34;5007219;28;102024;-48
2021/12/18 09:41:21;;;;;;;2.75;2.08;;;;;;;11.43;68.41;101623.06;5010162;28;102451;-48
2021/12/18 09:43:49;;;;;;;2.88;2.38;;;;;;;11.42;68.61;101629.59;5004647;28;102247;-49
2021/12/18 09:46:16;;;;;;;3.53;2.30;;;;;;;11.43;68.91;101632.09;5005169;28;103938;-48
2021/12/18 09:48:44;;;;;;;2.63;2.13;;;;;;;11.42;68.33;101622.25;4999066;28;102250;-49
2021/12/18 09:51:21;;;;;;;4.00;2.13;;;;;;;11.42;68.36;101619.50;5010187;28;103688;-48
2021/12/18 09:53:47;;;;;;;3.17;2.28;;;;;;;11.42;68.66;101619.50;5001742;28;102711;-49
2021/12/18 09:56:14;;;;;;;3.03;2.25;;;;;;;11.41;68.94;101622.50;4999799;28;103996;-48
2021/12/18 09:58:40;;;;;;;3.10;2.35;;;;;;;11.42;68.44;101621.41;4999362;28;102245;-48
2021/12/18 10:01:08;;;;;;;4.90;2.70;;;;;;;11.41;68.43;101623.31;5014439;28;104764;-49
2021/12/18 10:03:42;;;;;;;3.25;2.20;;;;;;;11.41;68.57;101631.50;5015038;28;102338;-48
2021/12/18 10:06:35;;;;;;;3.53;2.42;;;;;;;11.41;68.33;101628.78;5013969;28;104022;-48
2021/12/18 10:09:02;;;;;;;2.70;2.30;;;;;;;11.41;68.84;101617.06;5006117;28;102303;-48
2021/12/18 10:11:30;;;;;;;2.53;2.33;;;;;;;11.40;68.80;101626.31;5012623;28;102519;-48
2021/12/18 10:13:59;;;;;;;3.10;2.30;;;;;;;11.40;68.43;101629.84;5011808;28;102173;-48
2021/12/18 10:16:27;;;;;;;2.83;2.22;;;;;;;11.40;68.38;101623.59;5009054;28;103935;-48
2021/12/18 10:18:57;;;;;;;3.35;2.63;;;;;;;11.40;68.27;101623.59;5006597;28;102464;-48
2021/12/18 10:21:26;;;;;;;3.80;2.53;;;;;;;11.40;68.49;101629.03;5008773;28;102162;-49
2021/12/18 10:23:54;;;;;;;3.38;2.22;;;;;;;11.39;68.35;101624.66;5012726;28;102866;-48
2021/12/18 10:26:36;;;;;;;2.95;2.50;;;;;;;11.39;68.64;101624.66;5011136;28;107986;-48
2021/12/18 10:29:06;;;;;;;4.78;3.17;;;;;;;11.39;68.74;101621.91;5004841;28;102659;-49
2021/12/18 10:31:44;;;;;;;4.40;3.05;;;;;;;11.40;68.77;101620.88;5002288;28;103297;-49
2021/12/18 10:34:18;;;;;;;6.30;3.70;;;;;;;11.39;68.47;101613.75;5004831;28;102349;-49
2021/12/18 10:37:18;;;;;;;4.35;3.28;;;;;;;11.39;68.75;101617.28;5014093;28;103618;-48
2021/12/18 10:39:59;;;;;;;5.57;3.85;;;;;;;11.37;68.21;101619.47;5013017;28;102409;-48
2021/12/18 10:42:28;;;;;;;4.75;3.53;;;;;;;11.38;68.73;101612.09;5013883;28;102147;-48
2021/12/18 10:45:22;;;;;;;5.30;3.78;;;;;;;11.38;68.21;101612.09;5016719;28;102159;-48
2021/12/18 10:47:54;;;;;;;4.88;3.35;;;;;;;11.39;68.34;101616.47;4966726;28;103892;-49
2021/12/18 10:50:25;;;;;;;4.00;3.55;;;;;;;11.37;68.38;101614.00;5012205;28;102449;-48
2021/12/18 10:52:56;;;;;;;5.18;3.53;;;;;;;11.39;68.36;101613.75;5009310;28;102171;-48
2021/12/18 10:55:32;;;;;;;4.65;3.13;;;;;;;11.37;68.61;101605.84;5015306;28;103220;-48
2021/12/18 10:58:02;;;;;;;4.30;3.47;;;;;;;11.38;68.61;101617.56;5002501;28;103927;-49
2021/12/18 11:00:35;;;;;;;4.63;3.28;;;;;;;11.37;68.57;101616.75;5017204;28;102600;-48
2021/12/18 11:03:15;;;;;;;4.85;3.38;;;;;;;11.38;68.62;101623.00;5002109;28;102298;-48
2021/12/18 11:05:42;;;;;;;3.55;2.72;;;;;;;11.38;68.26;101626.56;5001784;28;102248;-48
2021/12/18 11:08:11;;;;;;;4.10;3.10;;;;;;;11.37;68.21;101622.19;5006921;28;103986;-49
2021/12/18 11:15:53;;;;;;;4.35;2.95;;;;;;;11.36;68.40;101616.97;5003113;28;102364;-48
2021/12/18 11:18:21;;;;;;;3.75;3.20;;;;;;;11.36;68.42;101623.28;5001607;28;103906;-48
2021/12/18 11:20:50;;;;;;;3.28;2.78;;;;;;;11.36;68.36;101619.69;5021010;28;102298;-48
2021/12/18 11:23:26;;;;;;;2.80;2.60;;;;;;;11.36;68.51;101630.59;5010654;28;102320;-49
2021/12/18 11:25:55;;;;;;;3.97;2.88;;;;;;;11.36;68.21;101630.59;5013310;28;102867;-48
2021/12/18 11:28:24;;;;;;;3.58;2.83;;;;;;;11.36;68.18;101625.16;5006775;28;103711;-48
2021/12/18 11:30:51;;;;;;;2.88;2.45;;;;;;;11.35;68.47;101624.34;5011066;28;102864;-48
2021/12/18 11:33:18;;;;;;;4.95;2.90;;;;;;;11.35;68.66;101632.50;5005750;28;102115;-48
2021/12/18 11:35:47;;;;;;;3.08;2.67;;;;;;;11.35;68.26;101634.41;5008583;28;102638;-48
2021/12/18 11:38:15;;;;;;;3.42;2.92;;;;;;;11.35;68.31;101628.97;4998590;28;104057;-48
2021/12/18 11:40:42;;;;;;;4.38;2.80;;;;;;;11.34;68.58;101622.69;5000710;28;102135;-48
2021/12/18 11:43:28;;;;;;;4.45;2.88;;;;;;;11.36;68.49;101636.06;5010992;28;102282;-49
2021/12/18 11:45:55;;;;;;;3.50;2.50;;;;;;;11.35;68.56;101623.50;5001867;28;102831;-49
2021/12/18 11:48:21;;;;;;;2.90;2.63;;;;;;;11.35;67.95;101621.59;5013338;28;103719;-48
2021/12/18 11:50:49;;;;;;;4.47;2.92;;;;;;;11.35;68.53;101618.06;4998492;28;102172;-48
2021/12/18 11:53:17;;;;;;;3.38;2.92;;;;;;;11.35;68.13;101618.06;5002764;28;103003;-48
2021/12/18 11:55:59;;;;;;;4.07;2.83;;;;;;;11.34;68.11;101616.44;4999231;28;102852;-49
2021/12/18 11:58:27;;;;;;;5.13;3.30;;;;;;;11.34;68.13;101616.44;4996507;28;103929;-48
2021/12/18 12:01:00;;;;;;;4.30;2.93;;;;;;;11.35;68.35;101620.78;5001998;28;102473;-48
2021/12/18 12:03:30;;;;;;;4.03;2.90;;;;;;;11.34;68.17;101622.69;5007381;28;102370;-48
2021/12/18 12:06:00;;;;;;;3.78;2.75;;;;;;;11.34;68.38;101610.97;5011955;28;102493;-49
2021/12/18 12:08:36;;;;;;;4.25;3.17;;;;;;;11.34;68.02;101613.69;5010072;28;103944;-48
2021/12/18 12:11:19;;;;;;;4.60;3.15;;;;;;;11.33;68.01;101618.34;5001568;28;103344;-48
2021/12/18 12:13:54;;;;;;;4.60;3.55;;;;;;;11.34;68.18;101610.97;5009565;28;102156;-48
2021/12/18 12:17:02;;;;;;;3.53;3.03;;;;;;;11.33;68.28;101610.16;5011834;28;102194;-48
2021/12/18 12:19:41;;;;;;;3.67;2.83;;;;;;;11.33;68.01;101612.88;5000395;28;103983;-48
2021/12/18 12:22:29;;;;;;;4.50;2.90;;;;;;;11.34;68.42;101606.34;5011163;28;103058;-48